Axantha II — CQKN — position and weather

sailwx.info

Track history (hours):
 
Tides and Currents Weather Stations Pressure Air Temp Water Temp Dewpoint Dewpoint Depression Visibility Wind Speed Wind Dir Waves Ship Positions

Axantha II

Last reported at 2014-Jul-31 23:33 UTC. Time now 2014-Jul-31 23:47 UTC.
Position N 43°35' E 007°07'.

Length 43 m; draft 2.8 m.

Type: Cargo ship. MMSI: 255804580.

Date/timePositionNaut miles runAvg speedWind from/ knotsBaromVisibWave heightAir tempDewpointWater temp
2014-Jul-31 23:33N 43°35' E 007°07'0 0.0
2014-Jul-31 22:33N 43°35' E 007°07'0 0.0
2014-Jul-31 21:33N 43°35' E 007°07'0 0.0
2014-Jul-31 20:33N 43°35' E 007°07'0 0.0
2014-Jul-31 19:33N 43°35' E 007°07'0 0.0
2014-Jul-31 18:33N 43°35' E 007°07'0 0.0
2014-Jul-31 17:33N 43°35' E 007°07'0 0.0
2014-Jul-31 16:33N 43°35' E 007°07'0 0.0
2014-Jul-31 15:33N 43°35' E 007°07'1 0.6
2014-Jul-31 14:33N 43°35' E 007°08'0 0.0
2014-Jul-31 13:33N 43°35' E 007°08'0 0.0
2014-Jul-31 12:33N 43°35' E 007°08'0 0.3
2014-Jul-31 11:33N 43°35' E 007°08'1211.8
2014-Jul-31 10:34N 43°41' E 007°22'1 0.8
2014-Jul-31 09:31N 43°42' E 007°20'0 0.0
2014-Jul-31 08:33N 43°42' E 007°20'7 7.3
2014-Jul-31 07:33N 43°34' E 007°22'1312.5
2014-Jul-31 06:32N 43°22' E 007°26'9 9.2
2014-Jul-31 05:33N 43°15' E 007°18'1211.8
2014-Jul-31 04:33N 43°12' E 007°03'1212.0
2014-Jul-31 03:33N 43°08' E 006°47'6 0.6
2014-Jul-30 17:33N 43°09' E 006°38'4 3.8
2014-Jul-30 16:28N 43°13' E 006°40'0 0.0
2014-Jul-30 15:25N 43°13' E 006°40'4 4.6
2014-Jul-30 14:33N 43°16' E 006°43'4 3.9
2014-Jul-30 13:33N 43°16' E 006°38'0 0.0
2014-Jul-30 12:24N 43°16' E 006°38'0 0.0
2014-Jul-30 11:30N 43°16' E 006°38'1 0.6
2014-Jul-30 09:19N 43°16' E 006°36'0 0.0
2014-Jul-30 08:31N 43°16' E 006°36'1 0.9
2014-Jul-30 07:33N 43°17' E 006°37'6 5.7
2014-Jul-30 06:33N 43°19' E 006°44'1212.5
2014-Jul-30 05:34N 43°27' E 006°58'4 0.3
2014-Jul-29 15:33N 43°30' E 006°59'4 3.1
2014-Jul-29 14:22N 43°31' E 007°04'0 0.0
2014-Jul-29 12:28N 43°31' E 007°04'0 0.0
2014-Jul-29 11:29N 43°31' E 007°04'2 2.2
2014-Jul-29 10:20N 43°33' E 007°01'0 0.0
2014-Jul-29 09:32N 43°33' E 007°01'0 0.0
2014-Jul-29 08:32N 43°33' E 007°01'0 0.0
2014-Jul-29 07:26N 43°33' E 007°01'0 0.0
2014-Jul-29 06:32N 43°33' E 007°01'0 0.0
2014-Jul-29 05:32N 43°33' E 007°01'0 0.0
2014-Jul-29 04:32N 43°33' E 007°01'0 0.0
2014-Jul-29 03:32N 43°33' E 007°01'0 0.0
2014-Jul-29 02:20N 43°33' E 007°01'0 0.0
2014-Jul-29 01:32N 43°33' E 007°01'0 0.0
2014-Jul-29 00:32N 43°33' E 007°01'0 0.0
2014-Jul-28 23:26N 43°33' E 007°01'0 0.0
2014-Jul-28 22:26N 43°33' E 007°01'0 0.0
2014-Jul-28 21:32N 43°33' E 007°01'0 0.0
2014-Jul-28 20:33N 43°33' E 007°01'0 0.0
2014-Jul-28 19:33N 43°33' E 007°01'0 0.0
2014-Jul-28 18:33N 43°33' E 007°01'5 5.5
2014-Jul-28 17:33N 43°34' E 007°08'8 7.7
2014-Jul-28 16:33N 43°38' E 007°17'5 4.8
2014-Jul-28 15:33N 43°42' E 007°21'4 0.1
2014-Jul-27 12:15N 43°44' E 007°26'4 6.2
2014-Jul-27 11:33N 43°42' E 007°21'0 0.0
2014-Jul-27 08:20N 43°42' E 007°20'0 0.0
2014-Jul-27 07:20N 43°42' E 007°20'0 0.0
2014-Jul-27 06:32N 43°42' E 007°20'0 0.0
2014-Jul-27 05:26N 43°42' E 007°20'0 0.0
2014-Jul-27 04:26N 43°42' E 007°20'0 0.0
2014-Jul-27 02:20N 43°42' E 007°20'0 0.0
2014-Jul-27 01:32N 43°42' E 007°20'0 0.0
2014-Jul-27 00:32N 43°42' E 007°20'0 0.0
2014-Jul-26 23:32N 43°42' E 007°20'0 0.0
2014-Jul-26 20:32N 43°42' E 007°20'0 0.0
2014-Jul-26 19:32N 43°42' E 007°20'0 0.0
2014-Jul-26 18:26N 43°42' E 007°20'0 0.0
2014-Jul-26 17:08N 43°42' E 007°20'0 0.0
2014-Jul-26 16:20N 43°42' E 007°20'0 0.0
2014-Jul-26 14:20N 43°42' E 007°20'0 0.0
2014-Jul-26 13:14N 43°42' E 007°20'0 0.0
2014-Jul-26 12:08N 43°42' E 007°20'0 0.0
2014-Jul-26 09:32N 43°42' E 007°20'0 0.0
2014-Jul-26 08:32N 43°42' E 007°20'0 0.0
2014-Jul-26 07:32N 43°42' E 007°20'0 0.0
2014-Jul-26 06:32N 43°42' E 007°20'0 0.0
2014-Jul-26 05:32N 43°42' E 007°20'0 0.0
2014-Jul-26 04:20N 43°42' E 007°20'0 0.0
2014-Jul-26 03:20N 43°42' E 007°20'0 0.0
2014-Jul-26 02:32N 43°42' E 007°20'0 0.0
2014-Jul-26 01:32N 43°42' E 007°20'0 0.0
2014-Jul-26 00:32N 43°42' E 007°20'0 0.0
2014-Jul-25 23:32N 43°42' E 007°20'0 0.0
2014-Jul-25 22:32N 43°42' E 007°20'0 0.0
2014-Jul-25 21:32N 43°42' E 007°20'0 0.0
2014-Jul-25 20:32N 43°42' E 007°20'0 0.0
2014-Jul-25 15:32N 43°42' E 007°20'0 0.0
2014-Jul-25 14:32N 43°42' E 007°20'0 0.0
2014-Jul-25 13:32N 43°42' E 007°20'  
Track history (hours):
 
Tides and Currents Weather Stations Pressure Air Temp Water Temp Dewpoint Dewpoint Depression Visibility Wind Speed Wind Dir Waves Ship Positions

Axantha II

Last reported at 2014-Jul-31 23:33 UTC. Time now 2014-Jul-31 23:47 UTC.
Position N 43°35' E 007°07'.

Length 43 m; draft 2.8 m.

Type: Cargo ship. MMSI: 255804580.

Date/timePositionNaut miles runAvg speedWind from/ knotsBaromVisibWave heightAir tempDewpointWater temp
2014-Jul-31 23:33N 43°35' E 007°07'0 0.0
2014-Jul-31 22:33N 43°35' E 007°07'0 0.0
2014-Jul-31 21:33N 43°35' E 007°07'0 0.0
2014-Jul-31 20:33N 43°35' E 007°07'0 0.0
2014-Jul-31 19:33N 43°35' E 007°07'0 0.0
2014-Jul-31 18:33N 43°35' E 007°07'0 0.0
2014-Jul-31 17:33N 43°35' E 007°07'0 0.0
2014-Jul-31 16:33N 43°35' E 007°07'0 0.0
2014-Jul-31 15:33N 43°35' E 007°07'1 0.6
2014-Jul-31 14:33N 43°35' E 007°08'0 0.0
2014-Jul-31 13:33N 43°35' E 007°08'0 0.0
2014-Jul-31 12:33N 43°35' E 007°08'0 0.3
2014-Jul-31 11:33N 43°35' E 007°08'1211.8
2014-Jul-31 10:34N 43°41' E 007°22'1 0.8
2014-Jul-31 09:31N 43°42' E 007°20'0 0.0
2014-Jul-31 08:33N 43°42' E 007°20'7 7.3
2014-Jul-31 07:33N 43°34' E 007°22'1312.5
2014-Jul-31 06:32N 43°22' E 007°26'9 9.2
2014-Jul-31 05:33N 43°15' E 007°18'1211.8
2014-Jul-31 04:33N 43°12' E 007°03'1212.0
2014-Jul-31 03:33N 43°08' E 006°47'6 0.6
2014-Jul-30 17:33N 43°09' E 006°38'4 3.8
2014-Jul-30 16:28N 43°13' E 006°40'0 0.0
2014-Jul-30 15:25N 43°13' E 006°40'4 4.6
2014-Jul-30 14:33N 43°16' E 006°43'4 3.9
2014-Jul-30 13:33N 43°16' E 006°38'0 0.0
2014-Jul-30 12:24N 43°16' E 006°38'0 0.0
2014-Jul-30 11:30N 43°16' E 006°38'1 0.6
2014-Jul-30 09:19N 43°16' E 006°36'0 0.0
2014-Jul-30 08:31N 43°16' E 006°36'1 0.9
2014-Jul-30 07:33N 43°17' E 006°37'6 5.7
2014-Jul-30 06:33N 43°19' E 006°44'1212.5
2014-Jul-30 05:34N 43°27' E 006°58'4 0.3
2014-Jul-29 15:33N 43°30' E 006°59'4 3.1
2014-Jul-29 14:22N 43°31' E 007°04'0 0.0
2014-Jul-29 12:28N 43°31' E 007°04'0 0.0
2014-Jul-29 11:29N 43°31' E 007°04'2 2.2
2014-Jul-29 10:20N 43°33' E 007°01'0 0.0
2014-Jul-29 09:32N 43°33' E 007°01'0 0.0
2014-Jul-29 08:32N 43°33' E 007°01'0 0.0
2014-Jul-29 07:26N 43°33' E 007°01'0 0.0
2014-Jul-29 06:32N 43°33' E 007°01'0 0.0
2014-Jul-29 05:32N 43°33' E 007°01'0 0.0
2014-Jul-29 04:32N 43°33' E 007°01'0 0.0
2014-Jul-29 03:32N 43°33' E 007°01'0 0.0
2014-Jul-29 02:20N 43°33' E 007°01'0 0.0
2014-Jul-29 01:32N 43°33' E 007°01'0 0.0
2014-Jul-29 00:32N 43°33' E 007°01'0 0.0
2014-Jul-28 23:26N 43°33' E 007°01'0 0.0
2014-Jul-28 22:26N 43°33' E 007°01'0 0.0
2014-Jul-28 21:32N 43°33' E 007°01'0 0.0
2014-Jul-28 20:33N 43°33' E 007°01'0 0.0
2014-Jul-28 19:33N 43°33' E 007°01'0 0.0
2014-Jul-28 18:33N 43°33' E 007°01'5 5.5
2014-Jul-28 17:33N 43°34' E 007°08'8 7.7
2014-Jul-28 16:33N 43°38' E 007°17'5 4.8
2014-Jul-28 15:33N 43°42' E 007°21'4 0.1
2014-Jul-27 12:15N 43°44' E 007°26'4 6.2
2014-Jul-27 11:33N 43°42' E 007°21'0 0.0
2014-Jul-27 08:20N 43°42' E 007°20'0 0.0
2014-Jul-27 07:20N 43°42' E 007°20'0 0.0
2014-Jul-27 06:32N 43°42' E 007°20'0 0.0
2014-Jul-27 05:26N 43°42' E 007°20'0 0.0
2014-Jul-27 04:26N 43°42' E 007°20'0 0.0
2014-Jul-27 02:20N 43°42' E 007°20'0 0.0
2014-Jul-27 01:32N 43°42' E 007°20'0 0.0
2014-Jul-27 00:32N 43°42' E 007°20'0 0.0
2014-Jul-26 23:32N 43°42' E 007°20'0 0.0
2014-Jul-26 20:32N 43°42' E 007°20'0 0.0
2014-Jul-26 19:32N 43°42' E 007°20'0 0.0
2014-Jul-26 18:26N 43°42' E 007°20'0 0.0
2014-Jul-26 17:08N 43°42' E 007°20'0 0.0
2014-Jul-26 16:20N 43°42' E 007°20'0 0.0
2014-Jul-26 14:20N 43°42' E 007°20'0 0.0
2014-Jul-26 13:14N 43°42' E 007°20'0 0.0
2014-Jul-26 12:08N 43°42' E 007°20'0 0.0
2014-Jul-26 09:32N 43°42' E 007°20'0 0.0
2014-Jul-26 08:32N 43°42' E 007°20'0 0.0
2014-Jul-26 07:32N 43°42' E 007°20'0 0.0
2014-Jul-26 06:32N 43°42' E 007°20'0 0.0
2014-Jul-26 05:32N 43°42' E 007°20'0 0.0
2014-Jul-26 04:20N 43°42' E 007°20'0 0.0
2014-Jul-26 03:20N 43°42' E 007°20'0 0.0
2014-Jul-26 02:32N 43°42' E 007°20'0 0.0
2014-Jul-26 01:32N 43°42' E 007°20'0 0.0
2014-Jul-26 00:32N 43°42' E 007°20'0 0.0
2014-Jul-25 23:32N 43°42' E 007°20'0 0.0
2014-Jul-25 22:32N 43°42' E 007°20'0 0.0
2014-Jul-25 21:32N 43°42' E 007°20'0 0.0
2014-Jul-25 20:32N 43°42' E 007°20'0 0.0
2014-Jul-25 15:32N 43°42' E 007°20'0 0.0
2014-Jul-25 14:32N 43°42' E 007°20'0 0.0
2014-Jul-25 13:32N 43°42' E 007°20'  

Dump ship's entire track history